sensor_id;sensor_type;location;lat;lon;timestamp;P1;durP1;ratioP1;P2;durP2;ratioP2
27412;SDS011;14871;52.702;5.230;2024-02-26T00:02:02;17.02;;;11.15;;
27412;SDS011;14871;52.702;5.230;2024-02-26T00:04:28;17.52;;;11.20;;
27412;SDS011;14871;52.702;5.230;2024-02-26T00:06:53;18.35;;;11.80;;
27412;SDS011;14871;52.702;5.230;2024-02-26T00:09:19;17.63;;;12.02;;
27412;SDS011;14871;52.702;5.230;2024-02-26T00:11:45;18.65;;;12.00;;
27412;SDS011;14871;52.702;5.230;2024-02-26T00:14:11;17.88;;;12.32;;
27412;SDS011;14871;52.702;5.230;2024-02-26T00:16:41;17.42;;;11.75;;
27412;SDS011;14871;52.702;5.230;2024-02-26T00:19:07;18.45;;;13.50;;
27412;SDS011;14871;52.702;5.230;2024-02-26T00:21:33;17.27;;;11.73;;
27412;SDS011;14871;52.702;5.230;2024-02-26T00:23:59;20.17;;;12.65;;
27412;SDS011;14871;52.702;5.230;2024-02-26T00:26:26;19.85;;;12.90;;
27412;SDS011;14871;52.702;5.230;2024-02-26T00:28:52;18.08;;;12.65;;
27412;SDS011;14871;52.702;5.230;2024-02-26T00:31:17;18.58;;;12.00;;
27412;SDS011;14871;52.702;5.230;2024-02-26T00:33:43;18.40;;;12.18;;
27412;SDS011;14871;52.702;5.230;2024-02-26T00:36:09;19.40;;;12.38;;
27412;SDS011;14871;52.702;5.230;2024-02-26T00:38:35;21.13;;;13.15;;
27412;SDS011;14871;52.702;5.230;2024-02-26T00:41:01;17.83;;;12.38;;
27412;SDS011;14871;52.702;5.230;2024-02-26T00:43:26;20.40;;;12.45;;
27412;SDS011;14871;52.702;5.230;2024-02-26T00:45:52;20.48;;;12.75;;
27412;SDS011;14871;52.702;5.230;2024-02-26T00:48:17;18.45;;;12.88;;
27412;SDS011;14871;52.702;5.230;2024-02-26T00:50:43;18.92;;;12.68;;
27412;SDS011;14871;52.702;5.230;2024-02-26T00:53:09;19.50;;;12.95;;
27412;SDS011;14871;52.702;5.230;2024-02-26T00:55:34;23.30;;;13.43;;
27412;SDS011;14871;52.702;5.230;2024-02-26T00:58:00;24.13;;;13.50;;
27412;SDS011;14871;52.702;5.230;2024-02-26T01:00:25;19.98;;;12.52;;
27412;SDS011;14871;52.702;5.230;2024-02-26T01:02:51;20.00;;;12.48;;
27412;SDS011;14871;52.702;5.230;2024-02-26T01:05:17;19.92;;;13.15;;
27412;SDS011;14871;52.702;5.230;2024-02-26T01:07:42;20.73;;;12.75;;
27412;SDS011;14871;52.702;5.230;2024-02-26T01:10:08;21.65;;;13.23;;
27412;SDS011;14871;52.702;5.230;2024-02-26T01:12:34;20.25;;;12.07;;
27412;SDS011;14871;52.702;5.230;2024-02-26T01:15:00;21.90;;;13.45;;
27412;SDS011;14871;52.702;5.230;2024-02-26T01:17:28;21.50;;;13.38;;
27412;SDS011;14871;52.702;5.230;2024-02-26T01:19:53;22.15;;;13.05;;
27412;SDS011;14871;52.702;5.230;2024-02-26T01:22:19;19.98;;;12.15;;
27412;SDS011;14871;52.702;5.230;2024-02-26T01:24:45;21.80;;;13.02;;
27412;SDS011;14871;52.702;5.230;2024-02-26T01:27:13;19.73;;;13.05;;
27412;SDS011;14871;52.702;5.230;2024-02-26T01:29:40;22.42;;;12.85;;
27412;SDS011;14871;52.702;5.230;2024-02-26T01:32:06;21.33;;;12.40;;
27412;SDS011;14871;52.702;5.230;2024-02-26T01:34:32;22.25;;;12.77;;
27412;SDS011;14871;52.702;5.230;2024-02-26T01:36:58;22.90;;;13.85;;
27412;SDS011;14871;52.702;5.230;2024-02-26T01:39:24;24.35;;;14.00;;
27412;SDS011;14871;52.702;5.230;2024-02-26T01:41:52;23.40;;;13.32;;
27412;SDS011;14871;52.702;5.230;2024-02-26T01:44:18;21.85;;;13.02;;
27412;SDS011;14871;52.702;5.230;2024-02-26T01:46:44;19.40;;;13.00;;
27412;SDS011;14871;52.702;5.230;2024-02-26T01:49:11;21.25;;;13.02;;
27412;SDS011;14871;52.702;5.230;2024-02-26T01:51:38;23.73;;;13.98;;
27412;SDS011;14871;52.702;5.230;2024-02-26T01:54:05;21.60;;;13.75;;
27412;SDS011;14871;52.702;5.230;2024-02-26T01:56:32;21.15;;;13.43;;
27412;SDS011;14871;52.702;5.230;2024-02-26T01:59:00;19.52;;;12.35;;
27412;SDS011;14871;52.702;5.230;2024-02-26T02:01:27;22.60;;;12.88;;
27412;SDS011;14871;52.702;5.230;2024-02-26T02:03:55;23.73;;;12.07;;
27412;SDS011;14871;52.702;5.230;2024-02-26T02:06:23;20.20;;;12.77;;
27412;SDS011;14871;52.702;5.230;2024-02-26T02:08:49;20.33;;;12.85;;
27412;SDS011;14871;52.702;5.230;2024-02-26T02:11:14;22.08;;;13.75;;
27412;SDS011;14871;52.702;5.230;2024-02-26T02:13:41;22.75;;;13.05;;
27412;SDS011;14871;52.702;5.230;2024-02-26T02:16:07;22.58;;;13.05;;
27412;SDS011;14871;52.702;5.230;2024-02-26T02:18:32;21.88;;;13.52;;
27412;SDS011;14871;52.702;5.230;2024-02-26T02:21:01;22.15;;;13.20;;
27412;SDS011;14871;52.702;5.230;2024-02-26T02:23:27;22.55;;;14.20;;
27412;SDS011;14871;52.702;5.230;2024-02-26T02:25:53;23.33;;;14.02;;
27412;SDS011;14871;52.702;5.230;2024-02-26T02:28:21;23.50;;;13.85;;
27412;SDS011;14871;52.702;5.230;2024-02-26T02:30:48;21.25;;;13.15;;
27412;SDS011;14871;52.702;5.230;2024-02-26T02:33:14;22.95;;;13.95;;
27412;SDS011;14871;52.702;5.230;2024-02-26T02:35:41;22.50;;;14.05;;
27412;SDS011;14871;52.702;5.230;2024-02-26T02:38:07;24.90;;;14.52;;
27412;SDS011;14871;52.702;5.230;2024-02-26T02:40:32;21.58;;;13.80;;
27412;SDS011;14871;52.702;5.230;2024-02-26T02:42:58;23.45;;;14.50;;
27412;SDS011;14871;52.702;5.230;2024-02-26T02:45:25;26.45;;;14.85;;
27412;SDS011;14871;52.702;5.230;2024-02-26T02:47:51;23.73;;;14.30;;
27412;SDS011;14871;52.702;5.230;2024-02-26T02:50:16;24.08;;;14.77;;
27412;SDS011;14871;52.702;5.230;2024-02-26T02:52:42;25.08;;;14.90;;
27412;SDS011;14871;52.702;5.230;2024-02-26T02:55:08;21.27;;;13.80;;
27412;SDS011;14871;52.702;5.230;2024-02-26T02:57:33;26.25;;;15.55;;
27412;SDS011;14871;52.702;5.230;2024-02-26T02:59:59;25.38;;;16.33;;
27412;SDS011;14871;52.702;5.230;2024-02-26T03:02:25;29.15;;;16.92;;
27412;SDS011;14871;52.702;5.230;2024-02-26T03:04:50;27.70;;;16.73;;
27412;SDS011;14871;52.702;5.230;2024-02-26T03:07:16;27.90;;;16.17;;
27412;SDS011;14871;52.702;5.230;2024-02-26T03:09:42;26.85;;;16.27;;
27412;SDS011;14871;52.702;5.230;2024-02-26T03:12:08;25.63;;;15.07;;
27412;SDS011;14871;52.702;5.230;2024-02-26T03:14:34;28.27;;;15.80;;
27412;SDS011;14871;52.702;5.230;2024-02-26T03:16:59;28.63;;;17.30;;
27412;SDS011;14871;52.702;5.230;2024-02-26T03:19:25;27.90;;;17.05;;
27412;SDS011;14871;52.702;5.230;2024-02-26T03:21:51;29.63;;;17.02;;
27412;SDS011;14871;52.702;5.230;2024-02-26T03:24:16;27.83;;;17.17;;
27412;SDS011;14871;52.702;5.230;2024-02-26T03:26:42;28.50;;;17.17;;
27412;SDS011;14871;52.702;5.230;2024-02-26T03:29:08;27.15;;;16.92;;
27412;SDS011;14871;52.702;5.230;2024-02-26T03:31:33;27.98;;;17.08;;
27412;SDS011;14871;52.702;5.230;2024-02-26T03:33:59;26.05;;;15.95;;
27412;SDS011;14871;52.702;5.230;2024-02-26T03:36:25;25.83;;;16.40;;
27412;SDS011;14871;52.702;5.230;2024-02-26T03:38:50;29.65;;;17.08;;
27412;SDS011;14871;52.702;5.230;2024-02-26T03:41:16;26.73;;;16.77;;
27412;SDS011;14871;52.702;5.230;2024-02-26T03:43:42;27.23;;;16.55;;
27412;SDS011;14871;52.702;5.230;2024-02-26T03:46:07;28.50;;;16.35;;
27412;SDS011;14871;52.702;5.230;2024-02-26T03:48:34;26.25;;;16.10;;
27412;SDS011;14871;52.702;5.230;2024-02-26T03:51:00;26.10;;;16.80;;
27412;SDS011;14871;52.702;5.230;2024-02-26T03:53:26;26.33;;;16.15;;
27412;SDS011;14871;52.702;5.230;2024-02-26T03:55:51;25.98;;;16.48;;
27412;SDS011;14871;52.702;5.230;2024-02-26T03:58:17;27.88;;;16.75;;
27412;SDS011;14871;52.702;5.230;2024-02-26T04:00:43;22.38;;;14.75;;
27412;SDS011;14871;52.702;5.230;2024-02-26T04:03:09;24.95;;;15.35;;
27412;SDS011;14871;52.702;5.230;2024-02-26T04:05:35;26.15;;;15.38;;
27412;SDS011;14871;52.702;5.230;2024-02-26T04:08:00;21.67;;;13.27;;
27412;SDS011;14871;52.702;5.230;2024-02-26T04:10:26;25.25;;;15.52;;
27412;SDS011;14871;52.702;5.230;2024-02-26T04:12:52;23.30;;;14.15;;
27412;SDS011;14871;52.702;5.230;2024-02-26T04:15:17;23.38;;;14.68;;
27412;SDS011;14871;52.702;5.230;2024-02-26T04:17:43;21.42;;;13.73;;
27412;SDS011;14871;52.702;5.230;2024-02-26T04:20:13;22.05;;;13.55;;
27412;SDS011;14871;52.702;5.230;2024-02-26T04:22:41;22.75;;;13.73;;
27412;SDS011;14871;52.702;5.230;2024-02-26T04:25:06;21.60;;;13.73;;
27412;SDS011;14871;52.702;5.230;2024-02-26T04:27:32;19.95;;;13.02;;
27412;SDS011;14871;52.702;5.230;2024-02-26T04:29:59;21.92;;;13.10;;
27412;SDS011;14871;52.702;5.230;2024-02-26T04:32:24;19.13;;;12.75;;
27412;SDS011;14871;52.702;5.230;2024-02-26T04:34:50;18.55;;;11.73;;
27412;SDS011;14871;52.702;5.230;2024-02-26T04:37:15;17.63;;;11.70;;
27412;SDS011;14871;52.702;5.230;2024-02-26T04:39:41;16.98;;;11.13;;
27412;SDS011;14871;52.702;5.230;2024-02-26T04:42:07;17.23;;;11.15;;
27412;SDS011;14871;52.702;5.230;2024-02-26T04:44:32;17.35;;;11.50;;
27412;SDS011;14871;52.702;5.230;2024-02-26T04:46:58;19.55;;;11.80;;
27412;SDS011;14871;52.702;5.230;2024-02-26T04:49:23;17.23;;;10.95;;
27412;SDS011;14871;52.702;5.230;2024-02-26T04:51:49;16.48;;;11.07;;
27412;SDS011;14871;52.702;5.230;2024-02-26T04:54:15;16.38;;;10.63;;
27412;SDS011;14871;52.702;5.230;2024-02-26T04:56:40;13.60;;;10.07;;
27412;SDS011;14871;52.702;5.230;2024-02-26T04:59:06;14.75;;;9.90;;
27412;SDS011;14871;52.702;5.230;2024-02-26T05:01:33;17.42;;;10.27;;
27412;SDS011;14871;52.702;5.230;2024-02-26T05:03:58;16.30;;;9.90;;
27412;SDS011;14871;52.702;5.230;2024-02-26T05:06:24;16.45;;;9.95;;
27412;SDS011;14871;52.702;5.230;2024-02-26T05:08:50;14.68;;;8.73;;
27412;SDS011;14871;52.702;5.230;2024-02-26T05:11:15;14.93;;;9.77;;
27412;SDS011;14871;52.702;5.230;2024-02-26T05:13:43;12.93;;;8.48;;
27412;SDS011;14871;52.702;5.230;2024-02-26T05:16:10;14.13;;;9.23;;
27412;SDS011;14871;52.702;5.230;2024-02-26T05:18:36;16.70;;;9.15;;
27412;SDS011;14871;52.702;5.230;2024-02-26T05:21:01;13.30;;;9.00;;
27412;SDS011;14871;52.702;5.230;2024-02-26T05:23:28;12.32;;;9.10;;
27412;SDS011;14871;52.702;5.230;2024-02-26T05:25:54;12.65;;;8.88;;
27412;SDS011;14871;52.702;5.230;2024-02-26T05:28:20;11.82;;;7.68;;
27412;SDS011;14871;52.702;5.230;2024-02-26T05:30:45;11.10;;;7.65;;
27412;SDS011;14871;52.702;5.230;2024-02-26T05:33:11;8.52;;;6.45;;
27412;SDS011;14871;52.702;5.230;2024-02-26T05:35:37;11.80;;;6.78;;
27412;SDS011;14871;52.702;5.230;2024-02-26T05:38:03;9.05;;;6.35;;
27412;SDS011;14871;52.702;5.230;2024-02-26T05:40:29;9.43;;;6.43;;
27412;SDS011;14871;52.702;5.230;2024-02-26T05:42:55;8.50;;;6.40;;
27412;SDS011;14871;52.702;5.230;2024-02-26T05:45:21;8.32;;;5.50;;
27412;SDS011;14871;52.702;5.230;2024-02-26T05:47:47;7.38;;;5.57;;
27412;SDS011;14871;52.702;5.230;2024-02-26T05:50:12;8.95;;;5.72;;
27412;SDS011;14871;52.702;5.230;2024-02-26T05:52:39;7.38;;;5.10;;
27412;SDS011;14871;52.702;5.230;2024-02-26T05:55:05;6.25;;;5.40;;
27412;SDS011;14871;52.702;5.230;2024-02-26T05:57:32;6.90;;;4.68;;
27412;SDS011;14871;52.702;5.230;2024-02-26T05:59:59;6.65;;;5.22;;
27412;SDS011;14871;52.702;5.230;2024-02-26T06:02:30;6.43;;;5.07;;
27412;SDS011;14871;52.702;5.230;2024-02-26T06:04:56;8.18;;;5.25;;
27412;SDS011;14871;52.702;5.230;2024-02-26T06:07:22;6.85;;;4.82;;
27412;SDS011;14871;52.702;5.230;2024-02-26T06:09:48;6.95;;;4.95;;
27412;SDS011;14871;52.702;5.230;2024-02-26T06:12:14;7.43;;;5.05;;
27412;SDS011;14871;52.702;5.230;2024-02-26T06:14:40;7.72;;;5.55;;
27412;SDS011;14871;52.702;5.230;2024-02-26T06:17:07;10.27;;;5.53;;
27412;SDS011;14871;52.702;5.230;2024-02-26T06:19:32;8.75;;;5.47;;
27412;SDS011;14871;52.702;5.230;2024-02-26T06:21:58;7.50;;;4.88;;
27412;SDS011;14871;52.702;5.230;2024-02-26T06:24:23;7.55;;;5.00;;
27412;SDS011;14871;52.702;5.230;2024-02-26T06:26:49;7.85;;;5.65;;
27412;SDS011;14871;52.702;5.230;2024-02-26T06:29:15;8.60;;;5.60;;
27412;SDS011;14871;52.702;5.230;2024-02-26T06:31:40;8.00;;;5.25;;
27412;SDS011;14871;52.702;5.230;2024-02-26T06:34:06;8.85;;;5.40;;
27412;SDS011;14871;52.702;5.230;2024-02-26T06:36:31;8.65;;;4.82;;
27412;SDS011;14871;52.702;5.230;2024-02-26T06:38:58;8.13;;;4.90;;
27412;SDS011;14871;52.702;5.230;2024-02-26T06:41:23;8.10;;;4.97;;
27412;SDS011;14871;52.702;5.230;2024-02-26T06:43:54;9.85;;;4.85;;
27412;SDS011;14871;52.702;5.230;2024-02-26T06:46:20;10.18;;;5.25;;
27412;SDS011;14871;52.702;5.230;2024-02-26T06:48:47;11.43;;;4.72;;
27412;SDS011;14871;52.702;5.230;2024-02-26T06:51:13;10.30;;;5.00;;
27412;SDS011;14871;52.702;5.230;2024-02-26T06:53:39;8.55;;;4.47;;
27412;SDS011;14871;52.702;5.230;2024-02-26T06:56:04;7.85;;;4.72;;
27412;SDS011;14871;52.702;5.230;2024-02-26T06:58:30;5.72;;;4.32;;
27412;SDS011;14871;52.702;5.230;2024-02-26T07:00:56;9.88;;;4.63;;
27412;SDS011;14871;52.702;5.230;2024-02-26T07:03:21;7.55;;;4.38;;
27412;SDS011;14871;52.702;5.230;2024-02-26T07:05:50;9.70;;;4.47;;
27412;SDS011;14871;52.702;5.230;2024-02-26T07:08:16;8.15;;;3.97;;
27412;SDS011;14871;52.702;5.230;2024-02-26T07:10:42;5.07;;;4.00;;
27412;SDS011;14871;52.702;5.230;2024-02-26T07:13:08;6.35;;;3.58;;
27412;SDS011;14871;52.702;5.230;2024-02-26T07:15:34;7.07;;;4.15;;
27412;SDS011;14871;52.702;5.230;2024-02-26T07:18:00;6.72;;;3.88;;
27412;SDS011;14871;52.702;5.230;2024-02-26T07:20:28;4.53;;;3.17;;
27412;SDS011;14871;52.702;5.230;2024-02-26T07:22:55;5.45;;;3.90;;
27412;SDS011;14871;52.702;5.230;2024-02-26T07:25:20;4.88;;;3.03;;
27412;SDS011;14871;52.702;5.230;2024-02-26T07:27:46;4.15;;;3.47;;
27412;SDS011;14871;52.702;5.230;2024-02-26T07:30:12;4.97;;;3.50;;
27412;SDS011;14871;52.702;5.230;2024-02-26T07:32:38;6.00;;;3.22;;
27412;SDS011;14871;52.702;5.230;2024-02-26T07:35:03;4.30;;;3.45;;
27412;SDS011;14871;52.702;5.230;2024-02-26T07:37:30;5.13;;;3.50;;
27412;SDS011;14871;52.702;5.230;2024-02-26T07:39:56;5.15;;;3.42;;
27412;SDS011;14871;52.702;5.230;2024-02-26T07:42:21;4.43;;;3.17;;
27412;SDS011;14871;52.702;5.230;2024-02-26T07:44:47;5.20;;;3.08;;
27412;SDS011;14871;52.702;5.230;2024-02-26T07:47:12;4.70;;;3.25;;
27412;SDS011;14871;52.702;5.230;2024-02-26T07:49:39;4.18;;;3.67;;
27412;SDS011;14871;52.702;5.230;2024-02-26T07:52:05;4.28;;;3.22;;
27412;SDS011;14871;52.702;5.230;2024-02-26T07:54:31;5.63;;;3.70;;
27412;SDS011;14871;52.702;5.230;2024-02-26T07:56:56;7.40;;;3.90;;
27412;SDS011;14871;52.702;5.230;2024-02-26T07:59:22;7.07;;;2.88;;
27412;SDS011;14871;52.702;5.230;2024-02-26T08:01:51;5.72;;;3.78;;
27412;SDS011;14871;52.702;5.230;2024-02-26T08:04:16;4.57;;;3.22;;
27412;SDS011;14871;52.702;5.230;2024-02-26T08:06:42;5.60;;;3.40;;
27412;SDS011;14871;52.702;5.230;2024-02-26T08:09:08;6.97;;;3.70;;
27412;SDS011;14871;52.702;5.230;2024-02-26T08:11:34;5.53;;;3.50;;
27412;SDS011;14871;52.702;5.230;2024-02-26T08:14:00;5.18;;;3.13;;
27412;SDS011;14871;52.702;5.230;2024-02-26T08:16:25;9.15;;;3.45;;
27412;SDS011;14871;52.702;5.230;2024-02-26T08:18:51;5.13;;;2.95;;
27412;SDS011;14871;52.702;5.230;2024-02-26T08:21:17;9.15;;;3.20;;
27412;SDS011;14871;52.702;5.230;2024-02-26T08:23:43;4.25;;;2.47;;
27412;SDS011;14871;52.702;5.230;2024-02-26T08:26:08;4.43;;;2.72;;
27412;SDS011;14871;52.702;5.230;2024-02-26T08:28:36;6.35;;;2.97;;
27412;SDS011;14871;52.702;5.230;2024-02-26T08:31:03;5.82;;;2.92;;
27412;SDS011;14871;52.702;5.230;2024-02-26T08:33:28;4.43;;;3.15;;
27412;SDS011;14871;52.702;5.230;2024-02-26T08:35:54;4.55;;;2.80;;
27412;SDS011;14871;52.702;5.230;2024-02-26T08:38:20;7.05;;;2.83;;
27412;SDS011;14871;52.702;5.230;2024-02-26T08:40:46;4.50;;;2.65;;
27412;SDS011;14871;52.702;5.230;2024-02-26T08:43:11;5.05;;;2.35;;
27412;SDS011;14871;52.702;5.230;2024-02-26T08:45:37;8.07;;;3.10;;
27412;SDS011;14871;52.702;5.230;2024-02-26T08:48:02;6.68;;;2.80;;
27412;SDS011;14871;52.702;5.230;2024-02-26T08:50:28;4.47;;;2.83;;
27412;SDS011;14871;52.702;5.230;2024-02-26T08:52:54;7.30;;;3.00;;
27412;SDS011;14871;52.702;5.230;2024-02-26T08:55:20;3.95;;;2.60;;
27412;SDS011;14871;52.702;5.230;2024-02-26T08:57:46;5.30;;;2.83;;
27412;SDS011;14871;52.702;5.230;2024-02-26T09:00:12;7.40;;;3.30;;
27412;SDS011;14871;52.702;5.230;2024-02-26T09:02:40;5.47;;;3.28;;
27412;SDS011;14871;52.702;5.230;2024-02-26T09:05:08;4.53;;;3.10;;
27412;SDS011;14871;52.702;5.230;2024-02-26T09:07:35;6.75;;;2.45;;
27412;SDS011;14871;52.702;5.230;2024-02-26T09:10:01;4.57;;;2.92;;
27412;SDS011;14871;52.702;5.230;2024-02-26T09:12:27;3.78;;;2.80;;
27412;SDS011;14871;52.702;5.230;2024-02-26T09:14:53;6.85;;;2.63;;
27412;SDS011;14871;52.702;5.230;2024-02-26T09:17:21;3.78;;;2.55;;
27412;SDS011;14871;52.702;5.230;2024-02-26T09:19:46;4.05;;;2.40;;
27412;SDS011;14871;52.702;5.230;2024-02-26T09:22:12;4.53;;;2.50;;
27412;SDS011;14871;52.702;5.230;2024-02-26T09:24:38;6.43;;;2.78;;
27412;SDS011;14871;52.702;5.230;2024-02-26T09:27:03;3.17;;;2.40;;
27412;SDS011;14871;52.702;5.230;2024-02-26T09:29:29;6.63;;;2.75;;
27412;SDS011;14871;52.702;5.230;2024-02-26T09:31:55;4.07;;;2.83;;
27412;SDS011;14871;52.702;5.230;2024-02-26T09:34:20;4.95;;;2.88;;
27412;SDS011;14871;52.702;5.230;2024-02-26T09:36:46;5.65;;;2.30;;
27412;SDS011;14871;52.702;5.230;2024-02-26T09:39:12;4.63;;;2.58;;
27412;SDS011;14871;52.702;5.230;2024-02-26T09:41:39;5.25;;;2.20;;
27412;SDS011;14871;52.702;5.230;2024-02-26T09:44:05;3.55;;;2.45;;
27412;SDS011;14871;52.702;5.230;2024-02-26T09:46:32;5.57;;;2.47;;
27412;SDS011;14871;52.702;5.230;2024-02-26T09:48:58;3.22;;;2.03;;
27412;SDS011;14871;52.702;5.230;2024-02-26T09:51:23;4.20;;;2.42;;
27412;SDS011;14871;52.702;5.230;2024-02-26T09:53:53;4.05;;;2.60;;
27412;SDS011;14871;52.702;5.230;2024-02-26T09:56:20;3.47;;;2.20;;
27412;SDS011;14871;52.702;5.230;2024-02-26T09:58:46;3.70;;;2.10;;
27412;SDS011;14871;52.702;5.230;2024-02-26T10:01:18;5.18;;;1.90;;
27412;SDS011;14871;52.702;5.230;2024-02-26T10:03:46;2.85;;;2.33;;
27412;SDS011;14871;52.702;5.230;2024-02-26T10:06:16;2.70;;;1.83;;
27412;SDS011;14871;52.702;5.230;2024-02-26T10:08:42;3.90;;;2.40;;
27412;SDS011;14871;52.702;5.230;2024-02-26T10:11:09;4.03;;;2.10;;
27412;SDS011;14871;52.702;5.230;2024-02-26T10:13:35;3.40;;;2.13;;
27412;SDS011;14871;52.702;5.230;2024-02-26T10:16:02;3.40;;;2.08;;
27412;SDS011;14871;52.702;5.230;2024-02-26T10:18:44;3.13;;;2.00;;
27412;SDS011;14871;52.702;5.230;2024-02-26T10:21:18;4.05;;;2.50;;
27412;SDS011;14871;52.702;5.230;2024-02-26T10:23:44;3.15;;;2.20;;
27412;SDS011;14871;52.702;5.230;2024-02-26T10:26:13;3.83;;;2.20;;
27412;SDS011;14871;52.702;5.230;2024-02-26T10:28:41;3.65;;;2.05;;
27412;SDS011;14871;52.702;5.230;2024-02-26T10:31:08;3.92;;;2.10;;
27412;SDS011;14871;52.702;5.230;2024-02-26T10:33:35;5.80;;;2.15;;
27412;SDS011;14871;52.702;5.230;2024-02-26T10:36:01;4.72;;;2.25;;
27412;SDS011;14871;52.702;5.230;2024-02-26T10:38:29;2.58;;;1.80;;
27412;SDS011;14871;52.702;5.230;2024-02-26T10:40:55;3.88;;;2.03;;
27412;SDS011;14871;52.702;5.230;2024-02-26T10:43:20;3.90;;;2.00;;
27412;SDS011;14871;52.702;5.230;2024-02-26T10:45:46;4.22;;;2.35;;
27412;SDS011;14871;52.702;5.230;2024-02-26T10:48:13;4.60;;;2.35;;
27412;SDS011;14871;52.702;5.230;2024-02-26T10:50:40;5.22;;;2.30;;
27412;SDS011;14871;52.702;5.230;2024-02-26T10:53:07;3.53;;;1.98;;
27412;SDS011;14871;52.702;5.230;2024-02-26T10:55:41;6.15;;;2.40;;
27412;SDS011;14871;52.702;5.230;2024-02-26T10:58:10;4.03;;;2.40;;
27412;SDS011;14871;52.702;5.230;2024-02-26T11:00:39;4.13;;;2.42;;
27412;SDS011;14871;52.702;5.230;2024-02-26T11:03:05;7.47;;;2.70;;
27412;SDS011;14871;52.702;5.230;2024-02-26T11:05:33;4.57;;;2.15;;
27412;SDS011;14871;52.702;5.230;2024-02-26T11:07:59;4.90;;;2.45;;
27412;SDS011;14871;52.702;5.230;2024-02-26T11:10:26;4.07;;;2.10;;
27412;SDS011;14871;52.702;5.230;2024-02-26T11:12:54;5.93;;;2.30;;
27412;SDS011;14871;52.702;5.230;2024-02-26T11:15:21;6.47;;;2.45;;
27412;SDS011;14871;52.702;5.230;2024-02-26T11:17:47;6.03;;;2.38;;
27412;SDS011;14871;52.702;5.230;2024-02-26T11:20:13;3.88;;;2.03;;
27412;SDS011;14871;52.702;5.230;2024-02-26T11:22:39;5.03;;;2.58;;
27412;SDS011;14871;52.702;5.230;2024-02-26T11:25:05;5.68;;;3.30;;
27412;SDS011;14871;52.702;5.230;2024-02-26T11:27:34;2.92;;;2.30;;
27412;SDS011;14871;52.702;5.230;2024-02-26T11:30:04;6.00;;;2.80;;
27412;SDS011;14871;52.702;5.230;2024-02-26T11:32:37;4.72;;;2.92;;
27412;SDS011;14871;52.702;5.230;2024-02-26T11:35:06;3.08;;;2.20;;
27412;SDS011;14871;52.702;5.230;2024-02-26T11:37:35;6.25;;;2.38;;
27412;SDS011;14871;52.702;5.230;2024-02-26T11:40:01;3.88;;;2.60;;
27412;SDS011;14871;52.702;5.230;2024-02-26T11:42:27;6.75;;;2.95;;
27412;SDS011;14871;52.702;5.230;2024-02-26T11:44:54;5.20;;;2.80;;
27412;SDS011;14871;52.702;5.230;2024-02-26T11:47:37;5.71;;;2.00;;
27412;SDS011;14871;52.702;5.230;2024-02-26T11:50:32;4.72;;;2.10;;
27412;SDS011;14871;52.702;5.230;2024-02-26T11:53:20;3.22;;;1.80;;
27412;SDS011;14871;52.702;5.230;2024-02-26T11:58:44;5.95;;;2.20;;
27412;SDS011;14871;52.702;5.230;2024-02-26T12:09:13;4.78;;;1.58;;
27412;SDS011;14871;52.702;5.230;2024-02-26T12:11:56;4.18;;;1.60;;
27412;SDS011;14871;52.702;5.230;2024-02-26T12:14:24;7.13;;;1.60;;
27412;SDS011;14871;52.702;5.230;2024-02-26T12:16:51;2.85;;;1.60;;
27412;SDS011;14871;52.702;5.230;2024-02-26T12:19:17;3.90;;;1.60;;
27412;SDS011;14871;52.702;5.230;2024-02-26T12:21:43;3.92;;;1.70;;
27412;SDS011;14871;52.702;5.230;2024-02-26T12:24:13;5.57;;;2.17;;
27412;SDS011;14871;52.702;5.230;2024-02-26T12:26:40;4.53;;;2.00;;
27412;SDS011;14871;52.702;5.230;2024-02-26T12:29:07;5.78;;;2.25;;
27412;SDS011;14871;52.702;5.230;2024-02-26T12:31:33;7.30;;;2.33;;
27412;SDS011;14871;52.702;5.230;2024-02-26T12:34:02;3.13;;;1.85;;
27412;SDS011;14871;52.702;5.230;2024-02-26T12:36:31;5.07;;;1.90;;
27412;SDS011;14871;52.702;5.230;2024-02-26T12:38:57;3.72;;;2.22;;
27412;SDS011;14871;52.702;5.230;2024-02-26T12:41:23;6.18;;;2.60;;
27412;SDS011;14871;52.702;5.230;2024-02-26T12:43:49;6.35;;;2.75;;
27412;SDS011;14871;52.702;5.230;2024-02-26T12:46:15;4.40;;;2.90;;
27412;SDS011;14871;52.702;5.230;2024-02-26T12:48:44;4.00;;;2.55;;
27412;SDS011;14871;52.702;5.230;2024-02-26T12:51:11;8.02;;;3.00;;
27412;SDS011;14871;52.702;5.230;2024-02-26T12:53:40;5.60;;;2.80;;
27412;SDS011;14871;52.702;5.230;2024-02-26T12:56:07;5.03;;;2.88;;
27412;SDS011;14871;52.702;5.230;2024-02-26T12:58:33;5.05;;;2.92;;
27412;SDS011;14871;52.702;5.230;2024-02-26T13:00:59;4.78;;;3.70;;
27412;SDS011;14871;52.702;5.230;2024-02-26T13:03:25;3.55;;;2.90;;
27412;SDS011;14871;52.702;5.230;2024-02-26T13:05:52;6.78;;;3.55;;
27412;SDS011;14871;52.702;5.230;2024-02-26T13:08:21;5.72;;;3.60;;
27412;SDS011;14871;52.702;5.230;2024-02-26T13:10:48;7.07;;;3.10;;
27412;SDS011;14871;52.702;5.230;2024-02-26T13:13:15;7.18;;;3.28;;
27412;SDS011;14871;52.702;5.230;2024-02-26T13:15:42;7.13;;;3.53;;
27412;SDS011;14871;52.702;5.230;2024-02-26T13:18:09;8.77;;;3.58;;
27412;SDS011;14871;52.702;5.230;2024-02-26T13:20:36;7.05;;;3.75;;
27412;SDS011;14871;52.702;5.230;2024-02-26T13:25:28;6.18;;;3.58;;
27412;SDS011;14871;52.702;5.230;2024-02-26T13:28:04;7.35;;;3.47;;
27412;SDS011;14871;52.702;5.230;2024-02-26T13:30:34;7.05;;;3.40;;
27412;SDS011;14871;52.702;5.230;2024-02-26T13:33:10;9.50;;;3.63;;
27412;SDS011;14871;52.702;5.230;2024-02-26T13:35:37;5.88;;;3.50;;
27412;SDS011;14871;52.702;5.230;2024-02-26T13:38:04;10.52;;;3.63;;
27412;SDS011;14871;52.702;5.230;2024-02-26T13:40:31;5.45;;;3.63;;
27412;SDS011;14871;52.702;5.230;2024-02-26T13:42:57;6.00;;;3.63;;
27412;SDS011;14871;52.702;5.230;2024-02-26T13:45:23;7.70;;;3.75;;
27412;SDS011;14871;52.702;5.230;2024-02-26T13:47:48;9.38;;;3.38;;
27412;SDS011;14871;52.702;5.230;2024-02-26T13:50:14;6.53;;;3.60;;
27412;SDS011;14871;52.702;5.230;2024-02-26T13:52:40;8.05;;;3.83;;
27412;SDS011;14871;52.702;5.230;2024-02-26T13:55:05;8.75;;;3.65;;
27412;SDS011;14871;52.702;5.230;2024-02-26T13:57:32;7.28;;;3.38;;
27412;SDS011;14871;52.702;5.230;2024-02-26T13:59:58;4.93;;;3.38;;
27412;SDS011;14871;52.702;5.230;2024-02-26T14:02:23;7.10;;;3.72;;
27412;SDS011;14871;52.702;5.230;2024-02-26T14:04:49;6.60;;;3.65;;
27412;SDS011;14871;52.702;5.230;2024-02-26T14:07:15;9.15;;;3.60;;
27412;SDS011;14871;52.702;5.230;2024-02-26T14:09:42;8.57;;;4.30;;
27412;SDS011;14871;52.702;5.230;2024-02-26T14:12:08;11.57;;;4.30;;
27412;SDS011;14871;52.702;5.230;2024-02-26T14:14:34;9.55;;;3.70;;
27412;SDS011;14871;52.702;5.230;2024-02-26T14:17:03;5.10;;;3.70;;
27412;SDS011;14871;52.702;5.230;2024-02-26T14:19:29;5.90;;;3.55;;
27412;SDS011;14871;52.702;5.230;2024-02-26T14:21:54;7.22;;;4.28;;
27412;SDS011;14871;52.702;5.230;2024-02-26T14:24:20;7.85;;;3.67;;
27412;SDS011;14871;52.702;5.230;2024-02-26T14:26:45;7.55;;;3.50;;
27412;SDS011;14871;52.702;5.230;2024-02-26T14:29:11;6.55;;;4.13;;
27412;SDS011;14871;52.702;5.230;2024-02-26T14:31:37;9.77;;;3.42;;
27412;SDS011;14871;52.702;5.230;2024-02-26T14:34:02;7.05;;;3.38;;
27412;SDS011;14871;52.702;5.230;2024-02-26T14:36:28;6.85;;;3.50;;
27412;SDS011;14871;52.702;5.230;2024-02-26T14:38:54;8.65;;;3.20;;
27412;SDS011;14871;52.702;5.230;2024-02-26T14:41:20;6.43;;;3.58;;
27412;SDS011;14871;52.702;5.230;2024-02-26T14:43:45;7.80;;;3.50;;
27412;SDS011;14871;52.702;5.230;2024-02-26T14:46:11;8.18;;;3.67;;
27412;SDS011;14871;52.702;5.230;2024-02-26T14:48:36;3.55;;;2.83;;